createdAt,value
2023-12-10T00:00:54.129Z,25.48
2023-12-10T00:03:44.567Z,26.23
2023-12-10T00:06:15.507Z,26.45
2023-12-10T00:08:46.267Z,27.38
2023-12-10T00:11:18.547Z,25.27
2023-12-10T00:13:48.864Z,27.25
2023-12-10T00:16:19.813Z,26.20
2023-12-10T00:18:50.595Z,21.17
2023-12-10T00:21:21.573Z,28.17
2023-12-10T00:23:52.204Z,27.75
2023-12-10T00:26:24.537Z,26.20
2023-12-10T00:28:55.291Z,28.20
2023-12-10T00:31:26.315Z,24.20
2023-12-10T00:33:56.916Z,30.45
2023-12-10T00:36:27.888Z,24.98
2023-12-10T00:39:00.927Z,25.85
2023-12-10T00:44:05.015Z,28.67
2023-12-10T00:46:35.698Z,27.80
2023-12-10T00:49:05.969Z,23.80
2023-12-10T00:51:36.775Z,26.83
2023-12-10T00:54:07.855Z,31.05
2023-12-10T00:56:40.076Z,21.20
2023-12-10T00:59:10.287Z,22.63
2023-12-10T01:01:40.910Z,24.95
2023-12-10T01:04:11.428Z,24.33
2023-12-10T01:06:42.226Z,26.15
2023-12-10T01:09:13.143Z,26.63
2023-12-10T01:11:45.348Z,21.70
2023-12-10T01:14:15.787Z,17.13
2023-12-10T01:16:49.998Z,20.02
2023-12-10T01:19:21.093Z,21.33
2023-12-10T01:21:52.113Z,25.13
2023-12-10T01:24:22.942Z,24.08
2023-12-10T01:26:55.217Z,23.63
2023-12-10T01:29:27.148Z,24.98
2023-12-10T01:31:58.321Z,21.45
2023-12-10T01:34:28.905Z,23.30
2023-12-10T01:36:59.608Z,23.70
2023-12-10T01:39:32.065Z,23.20
2023-12-10T01:42:04.708Z,19.95
2023-12-10T01:44:35.039Z,18.33
2023-12-10T01:47:06.851Z,18.17
2023-12-10T01:49:37.931Z,20.85
2023-12-10T01:52:09.796Z,23.25
2023-12-10T01:54:40.681Z,25.55
2023-12-10T01:57:14.267Z,20.65
2023-12-10T01:59:44.581Z,23.90
2023-12-10T02:02:15.751Z,24.52
2023-12-10T02:04:46.630Z,19.98
2023-12-10T02:07:17.416Z,24.70
2023-12-10T02:09:47.725Z,20.33
2023-12-10T02:12:20.740Z,21.40
2023-12-10T02:14:51.195Z,19.30
2023-12-10T02:17:22.167Z,19.00
2023-12-10T02:19:52.856Z,27.63
2023-12-10T02:22:24.920Z,25.23
2023-12-10T02:25:01.470Z,23.10
2023-12-10T02:27:34.081Z,26.10
2023-12-10T02:30:05.247Z,18.80
2023-12-10T02:32:36.099Z,25.48
2023-12-10T02:35:10.901Z,19.00
2023-12-10T02:37:41.522Z,21.40
2023-12-10T02:40:12.752Z,23.88
2023-12-10T02:42:44.862Z,24.02
2023-12-10T02:45:15.622Z,21.33
2023-12-10T02:47:47.093Z,23.92
2023-12-10T02:50:17.581Z,24.50
2023-12-10T02:52:48.401Z,27.42
2023-12-10T02:55:20.008Z,22.38
2023-12-10T02:57:52.210Z,20.30
2023-12-10T03:00:22.813Z,19.27
2023-12-10T03:02:54.008Z,18.52
2023-12-10T03:05:27.751Z,15.75
2023-12-10T03:08:02.301Z,23.67
2023-12-10T03:10:32.828Z,18.38
2023-12-10T03:13:05.155Z,20.88
2023-12-10T03:15:35.745Z,18.33
2023-12-10T03:18:09.314Z,24.60
2023-12-10T03:20:39.867Z,18.50
2023-12-10T03:23:10.928Z,17.63
2023-12-10T03:25:41.394Z,19.52
2023-12-10T03:28:16.480Z,18.67
2023-12-10T03:30:46.794Z,17.30
2023-12-10T03:33:20.556Z,12.05
2023-12-10T03:35:51.086Z,16.25
2023-12-10T03:38:21.932Z,13.50
2023-12-10T03:40:53.307Z,17.05
2023-12-10T03:43:25.876Z,18.08
2023-12-10T03:45:57.161Z,19.30
2023-12-10T03:48:28.661Z,18.25
2023-12-10T03:50:59.180Z,14.32
2023-12-10T03:53:31.890Z,18.05
2023-12-10T03:56:02.330Z,16.65
2023-12-10T03:58:34.605Z,16.17
2023-12-10T04:01:07.823Z,17.70
2023-12-10T04:03:39.841Z,19.40
2023-12-10T04:06:11.952Z,17.45
2023-12-10T04:08:44.482Z,16.08
2023-12-10T04:11:24.957Z,18.58
2023-12-10T04:13:58.262Z,18.45
2023-12-10T04:16:31.631Z,14.70
2023-12-10T04:19:02.957Z,19.55
2023-12-10T04:21:34.847Z,18.25
2023-12-10T04:24:06.600Z,16.35
2023-12-10T04:26:36.896Z,16.13
2023-12-10T04:29:09.048Z,19.30
2023-12-10T04:31:39.684Z,12.95
2023-12-10T04:34:10.579Z,14.82
2023-12-10T04:36:41.167Z,17.02
2023-12-10T04:39:12.050Z,16.40
2023-12-10T04:41:42.370Z,17.33
2023-12-10T04:44:14.530Z,20.13
2023-12-10T04:46:44.720Z,20.20
2023-12-10T04:49:15.556Z,16.08
2023-12-10T04:51:46.335Z,18.60
2023-12-10T04:54:17.437Z,17.02
2023-12-10T04:56:47.835Z,20.17
2023-12-10T04:59:19.884Z,19.30
2023-12-10T05:01:50.425Z,21.92
2023-12-10T05:04:21.254Z,16.88
2023-12-10T05:06:51.730Z,16.60
2023-12-10T05:09:22.702Z,16.65
2023-12-10T05:11:53.182Z,18.55
2023-12-10T05:14:25.424Z,19.38
2023-12-10T05:16:55.886Z,18.20
2023-12-10T05:19:26.863Z,18.35
2023-12-10T05:21:57.464Z,18.88
2023-12-10T05:24:28.531Z,21.48
2023-12-10T05:26:59.021Z,20.38
2023-12-10T05:29:31.425Z,23.70
2023-12-10T05:32:01.942Z,19.45
2023-12-10T05:34:33.066Z,20.90
2023-12-10T05:37:03.470Z,19.65
2023-12-10T05:39:34.084Z,17.48
2023-12-10T05:42:05.037Z,16.73
2023-12-10T05:44:37.320Z,17.27
2023-12-10T05:47:07.704Z,18.75
2023-12-10T05:49:38.388Z,19.88
2023-12-10T05:52:09.142Z,16.90
2023-12-10T05:54:40.885Z,16.17
2023-12-10T05:57:12.322Z,18.48
2023-12-10T05:59:47.914Z,20.23
2023-12-10T06:02:19.664Z,19.13
2023-12-10T06:04:50.444Z,18.15
2023-12-10T06:07:41.028Z,23.23
2023-12-10T06:10:19.233Z,20.77
2023-12-10T06:12:51.504Z,19.23
2023-12-10T06:15:24.366Z,19.27
2023-12-10T06:17:58.624Z,19.38
2023-12-10T06:20:29.781Z,17.88
2023-12-10T06:23:02.496Z,20.33
2023-12-10T06:25:33.454Z,22.13
2023-12-10T06:28:07.110Z,19.45
2023-12-10T06:30:41.960Z,15.23
2023-12-10T06:33:13.129Z,13.73
2023-12-10T06:35:44.174Z,16.90
2023-12-10T06:38:14.630Z,18.20
2023-12-10T06:40:47.492Z,15.05
2023-12-10T06:43:18.345Z,17.00
2023-12-10T06:45:52.882Z,16.58
2023-12-10T06:48:26.900Z,19.70
2023-12-10T06:50:57.572Z,14.35
2023-12-10T06:53:30.146Z,15.93
2023-12-10T06:56:02.241Z,22.00
2023-12-10T06:58:33.316Z,18.45
2023-12-10T07:01:09.976Z,17.88
2023-12-10T07:03:40.335Z,18.42
2023-12-10T07:06:11.288Z,17.35
2023-12-10T07:08:44.054Z,19.90
2023-12-10T07:11:15.551Z,21.33
2023-12-10T07:13:45.911Z,16.08
2023-12-10T07:16:18.135Z,19.80
2023-12-10T07:18:48.796Z,18.80
2023-12-10T07:21:19.766Z,23.98
2023-12-10T07:23:50.000Z,20.60
2023-12-10T07:26:24.757Z,20.10
2023-12-10T07:28:55.225Z,19.33
2023-12-10T07:31:27.828Z,21.15
2023-12-10T07:33:58.245Z,19.80
2023-12-10T07:36:29.236Z,17.13
2023-12-10T07:38:59.678Z,17.33
2023-12-10T07:41:30.766Z,14.60
2023-12-10T07:44:01.378Z,16.83
2023-12-10T07:46:33.633Z,14.93
2023-12-10T07:49:04.036Z,18.10
2023-12-10T07:51:35.100Z,16.90
2023-12-10T07:54:06.326Z,10.90
2023-12-10T07:56:37.137Z,21.85
2023-12-10T07:59:07.827Z,16.50
2023-12-10T08:01:40.292Z,17.42
2023-12-10T08:04:10.834Z,17.98
2023-12-10T08:06:41.583Z,15.70
2023-12-10T08:09:10.971Z,13.23
2023-12-10T08:11:42.283Z,16.50
2023-12-10T08:14:12.933Z,17.15
2023-12-10T08:16:45.100Z,20.45
2023-12-10T08:19:15.630Z,15.48
2023-12-10T08:21:47.239Z,14.73
2023-12-10T08:24:17.993Z,17.80
2023-12-10T08:26:48.692Z,16.17
2023-12-10T08:29:19.180Z,12.85
2023-12-10T08:31:51.489Z,15.50
2023-12-10T08:34:22.039Z,16.38
2023-12-10T08:36:52.901Z,16.50
2023-12-10T08:39:25.118Z,16.58
2023-12-10T08:41:55.815Z,14.20
2023-12-10T08:44:26.917Z,15.52
2023-12-10T08:46:59.282Z,18.42
2023-12-10T08:49:30.169Z,13.32
2023-12-10T08:52:03.961Z,24.58
2023-12-10T08:54:34.248Z,25.52
2023-12-10T08:57:05.162Z,19.80
2023-12-10T08:59:37.896Z,20.00
2023-12-10T09:02:10.340Z,17.27
2023-12-10T09:04:41.030Z,16.30
2023-12-10T09:07:11.802Z,14.75
2023-12-10T09:09:42.266Z,13.00
2023-12-10T09:12:13.159Z,16.75
2023-12-10T09:14:45.829Z,19.48
2023-12-10T09:17:18.053Z,23.23
2023-12-10T09:19:48.698Z,26.60
2023-12-10T09:22:19.572Z,31.38
2023-12-10T09:24:50.162Z,32.90
2023-12-10T09:27:21.096Z,25.38
2023-12-10T09:29:51.595Z,40.22
2023-12-10T09:32:25.206Z,24.38
2023-12-10T09:37:26.476Z,24.52
2023-12-10T09:39:56.820Z,26.63
2023-12-10T09:42:28.104Z,14.48
2023-12-10T09:44:59.793Z,18.52
2023-12-10T09:47:34.585Z,19.95
2023-12-10T09:50:06.685Z,20.77
2023-12-10T09:52:38.069Z,19.17
2023-12-10T09:55:12.136Z,19.55
2023-12-10T09:57:42.899Z,42.30
2023-12-10T10:00:20.226Z,29.67
2023-12-10T10:02:53.150Z,25.40
2023-12-10T10:05:25.241Z,19.10
2023-12-10T10:07:56.948Z,29.48
2023-12-10T10:10:28.159Z,26.48
2023-12-10T10:13:01.920Z,22.80
2023-12-10T10:15:37.223Z,19.73
2023-12-10T10:18:12.865Z,24.33
2023-12-10T10:20:46.890Z,21.00
2023-12-10T10:23:17.713Z,21.95
2023-12-10T10:25:50.976Z,21.60
2023-12-10T10:28:22.431Z,21.77
2023-12-10T10:30:56.581Z,19.73
2023-12-10T10:33:29.477Z,21.27
2023-12-10T10:36:04.356Z,21.17
2023-12-10T10:38:35.700Z,18.48
2023-12-10T10:41:09.975Z,17.17
2023-12-10T10:43:44.948Z,18.27
2023-12-10T10:46:16.658Z,17.63
2023-12-10T10:48:53.468Z,18.55
2023-12-10T10:51:29.931Z,20.15
2023-12-10T10:54:05.340Z,15.20
2023-12-10T10:56:37.956Z,19.75
2023-12-10T10:59:30.755Z,18.13
2023-12-10T11:02:03.073Z,21.73
2023-12-10T11:04:41.526Z,17.67
2023-12-10T11:07:18.417Z,17.38
2023-12-10T11:10:02.059Z,25.10
2023-12-10T11:12:47.763Z,31.50
2023-12-10T11:15:26.444Z,41.20
2023-12-10T11:18:01.538Z,23.98
2023-12-10T11:20:37.359Z,19.08
2023-12-10T11:23:09.753Z,24.15
2023-12-10T11:25:42.380Z,14.60
2023-12-10T11:28:16.228Z,15.50
2023-12-10T11:30:49.151Z,20.83
2023-12-10T11:33:20.123Z,20.08
2023-12-10T11:36:18.002Z,31.95
2023-12-10T11:38:49.240Z,31.40
2023-12-10T11:41:21.359Z,34.65
2023-12-10T11:43:51.983Z,28.38
2023-12-10T11:46:38.097Z,22.60
2023-12-10T11:49:15.808Z,22.65
2023-12-10T11:51:52.778Z,22.67
2023-12-10T11:54:24.069Z,19.00
2023-12-10T11:56:56.077Z,20.92
2023-12-10T11:59:28.349Z,22.98
2023-12-10T12:02:07.785Z,24.10
2023-12-10T12:04:38.637Z,24.30
2023-12-10T12:07:26.358Z,25.38
2023-12-10T12:09:57.448Z,22.30
2023-12-10T12:12:32.690Z,22.15
2023-12-10T12:15:04.576Z,20.02
2023-12-10T12:17:39.244Z,23.98
2023-12-10T12:20:20.554Z,18.42
2023-12-10T12:22:53.220Z,29.73
2023-12-10T12:25:26.500Z,24.90
2023-12-10T12:27:58.432Z,24.05
2023-12-10T12:30:30.605Z,24.25
2023-12-10T12:33:02.399Z,23.58
2023-12-10T12:35:36.799Z,27.90
2023-12-10T12:38:09.509Z,26.83
2023-12-10T12:40:40.005Z,28.15
2023-12-10T12:43:12.461Z,27.92
2023-12-10T12:45:45.072Z,25.13
2023-12-10T12:48:18.501Z,27.98
2023-12-10T12:50:49.422Z,25.17
2023-12-10T12:53:21.920Z,28.55
2023-12-10T12:55:54.283Z,24.60
2023-12-10T12:58:26.543Z,31.58
2023-12-10T13:00:57.339Z,30.33
2023-12-10T13:03:28.569Z,34.65
2023-12-10T13:05:59.769Z,32.15
2023-12-10T13:08:32.541Z,34.90
2023-12-10T13:11:03.305Z,29.35
2023-12-10T13:13:34.352Z,35.38
2023-12-10T13:16:06.196Z,34.63
2023-12-10T13:18:38.365Z,36.72
2023-12-10T13:21:10.232Z,39.75
2023-12-10T13:23:42.758Z,44.95
2023-12-10T13:26:13.481Z,51.80
2023-12-10T13:28:44.374Z,37.20
2023-12-10T13:31:15.275Z,46.65
2023-12-10T13:33:48.030Z,32.97
2023-12-10T13:36:19.129Z,30.37
2023-12-10T13:38:51.374Z,31.40
2023-12-10T13:41:23.425Z,33.85
2023-12-10T13:43:54.284Z,36.17
2023-12-10T13:46:28.017Z,44.58
2023-12-10T13:48:58.914Z,42.88
2023-12-10T13:51:29.525Z,39.08
2023-12-10T13:54:01.832Z,38.35
2023-12-10T13:56:32.401Z,27.50
2023-12-10T13:59:03.195Z,27.73
2023-12-10T14:01:33.698Z,31.40
2023-12-10T14:04:05.317Z,35.35
2023-12-10T14:06:36.101Z,30.48
2023-12-10T14:09:11.895Z,33.67
2023-12-10T14:11:44.415Z,31.58
2023-12-10T14:14:18.017Z,33.15
2023-12-10T14:16:48.833Z,40.20
2023-12-10T14:19:20.556Z,36.85
2023-12-10T14:21:51.173Z,32.08
2023-12-10T14:24:23.889Z,39.45
2023-12-10T14:26:54.418Z,34.45
2023-12-10T14:29:25.436Z,40.67
2023-12-10T14:31:56.081Z,39.95
2023-12-10T14:34:30.148Z,36.42
2023-12-10T14:37:03.800Z,30.48
2023-12-10T14:39:38.555Z,37.25
2023-12-10T14:42:09.488Z,38.58
2023-12-10T14:44:40.635Z,42.42
2023-12-10T14:47:11.432Z,35.75
2023-12-10T14:49:42.376Z,32.75
2023-12-10T14:52:12.945Z,41.65
2023-12-10T14:54:45.301Z,38.20
2023-12-10T14:57:15.762Z,49.33
2023-12-10T14:59:46.745Z,38.45
2023-12-10T15:02:17.685Z,33.63
2023-12-10T15:04:48.927Z,34.35
2023-12-10T15:07:19.357Z,32.88
2023-12-10T15:09:51.686Z,27.95
2023-12-10T15:12:26.588Z,30.60
2023-12-10T15:15:00.091Z,32.03
2023-12-10T15:17:31.990Z,33.35
2023-12-10T15:20:05.185Z,29.10
2023-12-10T15:22:35.812Z,24.13
2023-12-10T15:25:09.777Z,27.70
2023-12-10T15:27:43.508Z,28.13
2023-12-10T15:30:15.184Z,23.60
2023-12-10T15:32:46.203Z,18.38
2023-12-10T15:35:19.558Z,18.20
2023-12-10T15:37:50.305Z,21.40
2023-12-10T15:40:22.590Z,18.38
2023-12-10T15:42:53.176Z,12.82
2023-12-10T15:45:23.948Z,22.52
2023-12-10T15:47:55.429Z,12.70
2023-12-10T15:50:26.453Z,16.70
2023-12-10T15:52:56.892Z,21.63
2023-12-10T15:55:30.293Z,20.60
2023-12-10T15:58:00.730Z,18.88
2023-12-10T16:00:31.811Z,19.13
2023-12-10T16:03:04.576Z,17.58
2023-12-10T16:05:37.118Z,15.32
2023-12-10T16:08:08.480Z,10.85
2023-12-10T16:10:41.016Z,12.57
2023-12-10T16:13:17.937Z,9.05
2023-12-10T16:15:51.349Z,10.23
2023-12-10T16:18:22.345Z,11.32
2023-12-10T16:20:53.496Z,12.10
2023-12-10T16:23:24.409Z,10.85
2023-12-10T16:25:57.679Z,12.68
2023-12-10T16:28:28.525Z,10.02
2023-12-10T16:31:00.459Z,13.88
2023-12-10T16:33:31.910Z,15.60
2023-12-10T16:38:34.702Z,13.73
2023-12-10T16:41:08.893Z,13.68
2023-12-10T16:43:41.140Z,12.25
2023-12-10T16:46:16.396Z,14.25
2023-12-10T16:48:46.809Z,11.57
2023-12-10T16:51:18.272Z,14.30
2023-12-10T16:53:49.039Z,11.35
2023-12-10T16:56:21.704Z,12.95
2023-12-10T16:58:53.053Z,11.25
2023-12-10T17:01:27.431Z,13.07
2023-12-10T17:04:00.107Z,10.45
2023-12-10T17:06:31.429Z,12.45
2023-12-10T17:09:01.883Z,12.00
2023-12-10T17:11:34.753Z,13.93
2023-12-10T17:14:06.386Z,15.07
2023-12-10T17:16:40.768Z,17.15
2023-12-10T17:19:14.557Z,12.38
2023-12-10T17:21:50.217Z,13.23
2023-12-10T17:24:24.600Z,14.18
2023-12-10T17:26:57.493Z,15.38
2023-12-10T17:29:28.335Z,14.53
2023-12-10T17:31:59.644Z,11.45
2023-12-10T17:34:30.625Z,9.18
2023-12-10T17:37:02.462Z,15.43
2023-12-10T17:39:33.381Z,20.20
2023-12-10T17:42:06.688Z,10.02
2023-12-10T17:44:47.296Z,14.27
2023-12-10T17:47:28.377Z,13.52
2023-12-10T17:50:02.808Z,12.80
2023-12-10T17:52:37.274Z,15.73
2023-12-10T17:55:10.641Z,15.88
2023-12-10T17:57:48.485Z,17.10
2023-12-10T18:00:20.767Z,21.55
2023-12-10T18:02:52.647Z,15.07
2023-12-10T18:05:25.578Z,15.80
2023-12-10T18:10:33.406Z,15.38
2023-12-10T18:13:06.533Z,16.55
2023-12-10T18:15:37.795Z,17.85
2023-12-10T18:18:09.203Z,22.33
2023-12-10T18:20:40.168Z,15.93
2023-12-10T18:23:11.862Z,15.18
2023-12-10T18:25:42.679Z,16.52
2023-12-10T18:28:21.749Z,13.98
2023-12-10T18:30:59.446Z,13.45
2023-12-10T18:33:31.076Z,14.57
2023-12-10T18:36:01.905Z,8.57
2023-12-10T18:38:33.712Z,9.93
2023-12-10T18:41:06.032Z,10.80
2023-12-10T18:43:40.921Z,10.15
2023-12-10T18:46:14.296Z,9.80
2023-12-10T18:48:58.117Z,12.07
2023-12-10T18:51:29.170Z,13.35
2023-12-10T18:54:02.262Z,14.13
2023-12-10T18:56:43.002Z,12.77
2023-12-10T18:59:22.024Z,16.33
2023-12-10T19:01:52.906Z,17.48
2023-12-10T19:04:24.006Z,15.98
2023-12-10T19:06:56.139Z,12.15
2023-12-10T19:09:28.259Z,13.45
2023-12-10T19:12:04.933Z,23.95
2023-12-10T19:17:11.596Z,11.23
2023-12-10T19:19:44.409Z,16.55
2023-12-10T19:22:15.679Z,16.97
2023-12-10T19:24:47.229Z,10.55
2023-12-10T19:27:17.630Z,16.42
2023-12-10T19:29:50.267Z,15.48
2023-12-10T19:32:26.395Z,16.95
2023-12-10T19:34:58.707Z,15.23
2023-12-10T19:37:29.577Z,13.07
2023-12-10T19:40:02.235Z,14.52
2023-12-10T19:42:33.075Z,13.07
2023-12-10T19:45:07.867Z,14.20
2023-12-10T19:50:11.456Z,17.50
2023-12-10T19:52:42.332Z,18.20
2023-12-10T19:55:13.434Z,15.80
2023-12-10T19:57:48.681Z,18.65
2023-12-10T20:00:22.924Z,12.63
2023-12-10T20:02:56.194Z,16.58
2023-12-10T20:05:27.358Z,17.13
2023-12-10T20:07:58.117Z,16.10
2023-12-10T20:10:29.583Z,17.23
2023-12-10T20:13:04.105Z,21.63
2023-12-10T20:15:37.366Z,19.13
2023-12-10T20:18:11.421Z,24.50
2023-12-10T20:20:44.498Z,21.80
2023-12-10T20:23:16.445Z,21.02
2023-12-10T20:25:50.448Z,22.77
2023-12-10T20:28:21.900Z,18.07
2023-12-10T20:30:56.255Z,20.38
2023-12-10T20:36:06.987Z,31.08
2023-12-10T20:38:38.452Z,28.30
2023-12-10T20:41:09.837Z,25.75
2023-12-10T20:43:41.216Z,19.20
2023-12-10T20:46:17.865Z,21.55
2023-12-10T20:48:49.523Z,15.57
2023-12-10T20:51:24.055Z,16.38
2023-12-10T20:54:02.394Z,14.90
2023-12-10T20:56:39.217Z,14.32
2023-12-10T20:59:10.440Z,24.73
2023-12-10T21:01:43.072Z,19.10
2023-12-10T21:04:15.050Z,17.05
2023-12-10T21:06:47.146Z,20.73
2023-12-10T21:09:19.815Z,12.52
2023-12-10T21:11:50.461Z,12.65
2023-12-10T21:14:24.504Z,14.55
2023-12-10T21:16:56.690Z,13.98
2023-12-10T21:19:27.516Z,12.02
2023-12-10T21:21:59.606Z,15.38
2023-12-10T21:24:34.730Z,8.57
2023-12-10T21:27:08.882Z,12.43
2023-12-10T21:29:42.645Z,14.65
2023-12-10T21:32:15.550Z,7.00
2023-12-10T21:37:19.021Z,10.70
2023-12-10T21:39:51.626Z,7.30
2023-12-10T21:42:23.058Z,16.93
2023-12-10T21:44:56.573Z,7.68
2023-12-10T21:47:32.164Z,7.18
2023-12-10T21:50:04.272Z,12.38
2023-12-10T21:52:36.336Z,6.97
2023-12-10T21:55:08.917Z,6.70
2023-12-10T21:57:42.057Z,10.43
2023-12-10T22:00:18.946Z,9.40
2023-12-10T22:02:51.764Z,12.88
2023-12-10T22:05:26.007Z,10.88
2023-12-10T22:08:03.597Z,9.40
2023-12-10T22:10:34.922Z,6.20
2023-12-10T22:13:06.093Z,15.10
2023-12-10T22:15:37.773Z,7.50
2023-12-10T22:18:14.578Z,12.70
2023-12-10T22:20:45.350Z,8.20
2023-12-10T22:23:19.404Z,9.85
2023-12-10T22:28:23.527Z,10.70
2023-12-10T22:30:54.652Z,5.05
2023-12-10T22:33:26.967Z,6.10
2023-12-10T22:35:57.696Z,14.93
2023-12-10T22:38:34.841Z,5.03
2023-12-10T22:41:09.265Z,13.27
2023-12-10T22:43:43.341Z,10.27
2023-12-10T22:46:14.195Z,7.20
2023-12-10T22:48:46.697Z,9.27
2023-12-10T22:51:18.787Z,11.10
2023-12-10T22:53:49.857Z,8.35
2023-12-10T22:56:20.522Z,9.13
2023-12-10T22:58:51.413Z,9.00
2023-12-10T23:01:22.198Z,8.63
2023-12-10T23:03:54.674Z,7.10
2023-12-10T23:06:26.053Z,13.20
2023-12-10T23:08:57.041Z,5.40
2023-12-10T23:11:27.337Z,9.07
2023-12-10T23:13:58.430Z,13.93
2023-12-10T23:16:29.094Z,5.93
2023-12-10T23:19:01.612Z,6.22
2023-12-10T23:21:32.191Z,12.48
2023-12-10T23:24:03.039Z,7.65
2023-12-10T23:26:33.474Z,15.15
2023-12-10T23:29:06.011Z,14.50
2023-12-10T23:31:36.931Z,9.07
2023-12-10T23:34:09.261Z,7.40
2023-12-10T23:36:41.927Z,8.02
2023-12-10T23:39:12.946Z,7.20
2023-12-10T23:41:43.502Z,11.02
2023-12-10T23:44:14.224Z,8.85
2023-12-10T23:46:47.412Z,12.25
2023-12-10T23:51:49.743Z,5.53
2023-12-10T23:54:20.436Z,11.27
2023-12-10T23:56:50.700Z,13.90
2023-12-10T23:59:21.640Z,8.65
